Troy, VA (22974)

5:08 AM EDT on August 31, 2015 (GMT -0400)
Campbell Road | | Change Station
CLOSE
Current Station
Personal Weather Station
Location: Troy, VA
Elevation: 486 ft
Nearby Weather Stations

Elev 486 ft 38.00 °N, 78.25 °W | Updated 12 minutes ago

Mostly Cloudy
Mostly Cloudy
70.0 °F
Feels Like 70.0 °F
N
0.0
Wind Variable Wind from NE
Gusts 0.0 mph

Today
High -- | Low -- °F
--% Chance of Precip.
Yesterday
High -- | Low -- °F
Precip. -- in
6:41 AM 7:44 PM
Waning Gibbous, 96% visible
Pressure 30.08 in
Visibility 10.0 miles
Clouds Overcast 10000 ft
Dew Point 68 °F
Humidity 92%
Rainfall 0.00 in
Snow Depth Not available.
UV 0 out of 12
Pollen 9.10 out of 12
Air Quality Not available.
Flu Activity Not available.
METAR KLKU 310815Z AUTO 18005KT 10SM OVC100 23/19 A3008 RMK AO2
Pressure 30.08 in
Visibility 10.0 miles
Clouds Overcast 10000 ft
Dew Point 68 °F
Humidity 92%
Rainfall 0.00 in
Snow Depth Not available.
UV 0 out of 12
Pollen 9.10 out of 12
Air Quality Not available.
Flu Activity Not available.
METAR KLKU 310815Z AUTO 18005KT 10SM OVC100 23/19 A3008 RMK AO2

10-Day Weather Forecast

×

Almanac

Astronomy

Aug. 31, 2015 Rise Set
Actual Time
Civil Twilight
Nautical Twilight
Astronomical Twilight
Moon
Length of Visible Light
Length of Day
Tomorrow will be .
, % of the Moon is Illuminated

Today's Extremes

State Highs State Lows

Community

WunderPhotos

Upload Photos

1,851,227 photos uploaded!

WunderBlogs® & News

Nearby

Air Quality

  Air Quality AQ Index Pollutant
Not available.

Snow Depth

Station Depth Elevation

Earthquake Activity

City Distance Mag. Time & Date
Minimum magnitude displayed is 2.5.

Coastal Water Temperatures

Place Temperature

Stations

Nearby Weather Stations

Station Location Temp. Windchill Dew Point Humidity Wind Precip. Elev Updated Type